Litchfield, MN

5:45 AM CDT on April 21, 2018 (GMT -0500)
Litchfield Municipal

Weather History for KLJF - December, 2012

Change the Weather History Date:

Sunday, December 16, 2012

  Actual Average Record
Temperature  
Mean Temperature 24 °F -  
Max Temperature 32 °F 26 °F 47 °F (1959)
Min Temperature 15 °F 8 °F -20 °F (1963)
Degree Days  
Heating Degree Days 42    
Moisture  
Dew Point 21 °F    
Average Humidity 98    
Maximum Humidity 100    
Minimum Humidity 93    
Precipitation  
Precipitation 0.00 in - - ()
Sea Level Pressure  
Sea Level Pressure 29.73 in    
Wind  
Wind Speed 10 mph (NW)    
Max Wind Speed 16 mph    
Max Gust Speed 22 mph    
Visibility 8 miles    
Events      
Averages and records for this station are not official NWS values.
T = Trace of Precipitation, MM = Missing Value Source: NWS Daily Summary

Daily Weather History Graph

Daily Weather History Graph

Search for Another Location

Airport or City:

Astronomy

Dec. 16, 2012 Rise Set
Actual Time 7:50 AM CST 4:37 PM CST
Civil Twilight 7:16 AM CST 5:10 PM CST
Nautical Twilight 6:39 AM CST 5:48 PM CST
Astronomical Twilight 6:03 AM CST 6:24 PM CST
Moon 10:16 AM CST (12/16) 9:01 PM CST (12/16)
Length of Visible Light 9h 53m
Length of Day
8h 46m
Waxing Crescent, 16% of the Moon is Illuminated
Dec 16
Waxing Crescent
Dec 19
First Quarter
Dec 28
Full
Jan 4
Last Quarter
Jan 11
New

Hourly Weather History & Observations

Time (CST) Temp. Windchill Dew Point Humidity Pressure Visibility Wind Dir Wind Speed Gust Speed Precip Events Conditions
12:13 AM 32.0 °F 24.2 °F 32.0 °F 100% 29.59 in 2.5 mi WNW 9.2 mph 17.3 mph N/A   Overcast
12:53 AM 30.2 °F 20.8 °F 30.2 °F 100% 29.60 in 3.0 mi NW 11.5 mph 17.3 mph N/A   Overcast
1:13 AM 30.2 °F 20.8 °F 30.2 °F 100% 29.60 in 3.0 mi NW 11.5 mph 19.6 mph N/A   Overcast
1:33 AM 30.2 °F 21.3 °F 30.2 °F 100% 29.60 in 3.0 mi WNW 10.4 mph - N/A   Overcast
1:53 AM 30.2 °F 20.8 °F 30.2 °F 100% 29.61 in 4.0 mi NW 11.5 mph - N/A   Overcast
2:13 AM 30.2 °F 20.8 °F 30.2 °F 100% 29.62 in 4.0 mi WNW 11.5 mph 18.4 mph N/A   Overcast
2:33 AM 28.4 °F 17.0 °F 28.4 °F 100% 29.63 in 3.0 mi WNW 15.0 mph 18.4 mph N/A   Overcast
2:53 AM 28.4 °F 18.0 °F 28.4 °F 100% 29.64 in 3.0 mi WNW 12.7 mph 17.3 mph N/A   Overcast
3:13 AM 26.6 °F 16.8 °F 26.6 °F 100% 29.65 in 3.0 mi West 10.4 mph - N/A   Overcast
3:53 AM 26.6 °F 17.5 °F 26.6 °F 100% 29.65 in 3.0 mi WNW 9.2 mph - N/A   Overcast
4:13 AM 24.8 °F 14.0 °F 24.8 °F 100% 29.66 in 1.8 mi WNW 11.5 mph - N/A   Overcast
4:33 AM 24.8 °F 12.9 °F 24.8 °F 100% 29.67 in - WNW 13.8 mph - N/A   Overcast
4:53 AM 23.0 °F 12.4 °F 23.0 °F 100% 29.68 in 2.0 mi WNW 10.4 mph - N/A   Overcast
5:13 AM 21.2 °F 7.3 °F 21.2 °F 100% 29.67 in - WNW 16.1 mph - N/A   Overcast
5:34 AM 19.4 °F 6.0 °F 19.4 °F 100% 29.67 in 4.0 mi WNW 13.8 mph 19.6 mph N/A   Overcast
5:53 AM 19.4 °F 7.2 °F 19.4 °F 100% 29.69 in 3.0 mi NW 11.5 mph 19.6 mph N/A   Overcast
6:13 AM 19.4 °F 6.0 °F 19.4 °F 100% 29.69 in 5.0 mi NW 13.8 mph - N/A   Overcast
6:34 AM 19.4 °F 6.0 °F 19.4 °F 100% 29.70 in 5.0 mi NW 13.8 mph - N/A   Overcast
7:13 AM 17.6 °F 3.7 °F 17.6 °F 100% 29.71 in 7.0 mi NW 13.8 mph 21.9 mph N/A   Overcast
7:34 AM 17.6 °F 5.7 °F 15.8 °F 93% 29.71 in 7.0 mi NW 10.4 mph - N/A   Overcast
7:53 AM 17.6 °F 5.0 °F 15.8 °F 93% 29.71 in 7.0 mi NW 11.5 mph - N/A   Overcast
8:34 AM 15.8 °F 3.4 °F 15.8 °F 100% 29.72 in 7.0 mi NW 10.4 mph 17.3 mph N/A   Overcast
8:53 AM 15.8 °F 4.2 °F 15.8 °F 100% 29.73 in 7.0 mi NW 9.2 mph - N/A   Overcast
9:13 AM 15.8 °F 4.2 °F 15.8 °F 100% 29.74 in 10.0 mi NW 9.2 mph - N/A   Overcast
9:34 AM 15.8 °F 2.1 °F 15.8 °F 100% 29.74 in 7.0 mi NW 12.7 mph 16.1 mph N/A   Overcast
9:53 AM 15.8 °F 2.7 °F 15.8 °F 100% 29.75 in 10.0 mi NW 11.5 mph - N/A   Overcast
10:13 AM 17.6 °F 5.0 °F 15.8 °F 93% 29.75 in 7.0 mi NNW 11.5 mph - N/A   Overcast
10:34 AM 17.6 °F 5.0 °F 15.8 °F 93% 29.76 in 7.0 mi NNW 11.5 mph - N/A   Overcast
10:53 AM 17.6 °F 5.0 °F 17.6 °F 100% 29.76 in 7.0 mi NW 11.5 mph - N/A   Overcast
11:13 AM 17.6 °F 5.7 °F 17.6 °F 100% 29.76 in 7.0 mi NW 10.4 mph - N/A   Overcast
11:34 AM 17.6 °F 5.7 °F 17.6 °F 100% 29.76 in 7.0 mi NW 10.4 mph 16.1 mph N/A   Overcast
11:53 AM 17.6 °F 4.3 °F 17.6 °F 100% 29.75 in 7.0 mi NW 12.7 mph - N/A   Overcast
12:33 PM 19.4 °F 6.6 °F 17.6 °F 93% 29.74 in 7.0 mi NW 12.7 mph - N/A   Overcast
12:53 PM 19.4 °F 7.9 °F 17.6 °F 93% 29.74 in 7.0 mi NW 10.4 mph - N/A   Overcast
1:13 PM 19.4 °F 8.6 °F 17.6 °F 93% 29.74 in 10.0 mi NW 9.2 mph - N/A   Overcast
1:33 PM 19.4 °F 8.6 °F 19.4 °F 100% 29.74 in 10.0 mi NW 9.2 mph - N/A   Overcast
1:53 PM 19.4 °F 7.2 °F 19.4 °F 100% 29.74 in 10.0 mi NW 11.5 mph - N/A   Overcast
2:13 PM 19.4 °F 7.9 °F 19.4 °F 100% 29.74 in 10.0 mi NW 10.4 mph - N/A   Overcast
2:33 PM 19.4 °F 7.9 °F 19.4 °F 100% 29.74 in 10.0 mi NNW 10.4 mph - N/A   Overcast
2:53 PM 21.2 °F 10.9 °F 19.4 °F 93% 29.74 in 10.0 mi NW 9.2 mph - N/A   Overcast
3:13 PM 21.2 °F 10.1 °F 19.4 °F 93% 29.75 in 10.0 mi NNW 10.4 mph - N/A   Overcast
3:33 PM 21.2 °F 10.9 °F 19.4 °F 93% 29.75 in 10.0 mi NW 9.2 mph - N/A   Overcast
3:53 PM 21.2 °F 11.7 °F 19.4 °F 93% 29.75 in 10.0 mi NW 8.1 mph - N/A   Overcast
4:13 PM 21.2 °F 12.6 °F 19.4 °F 93% 29.76 in 10.0 mi NW 6.9 mph - N/A   Overcast
4:33 PM 21.2 °F 11.7 °F 19.4 °F 93% 29.76 in 10.0 mi NNW 8.1 mph - N/A   Overcast
4:53 PM 21.2 °F 10.1 °F 19.4 °F 93% 29.76 in 10.0 mi NNW 10.4 mph - N/A   Overcast
5:13 PM 21.2 °F 10.9 °F 21.2 °F 100% 29.76 in 10.0 mi NNW 9.2 mph - N/A   Overcast
5:33 PM 21.2 °F 11.7 °F 21.2 °F 100% 29.77 in 10.0 mi NW 8.1 mph - N/A   Overcast
5:54 PM 21.2 °F 11.7 °F 21.2 °F 100% 29.78 in 10.0 mi NNW 8.1 mph - N/A   Overcast
6:13 PM 21.2 °F 9.5 °F 21.2 °F 100% 29.78 in 10.0 mi NNW 11.5 mph - N/A   Overcast
6:33 PM 21.2 °F 9.5 °F 21.2 °F 100% 29.78 in 10.0 mi NNW 11.5 mph - N/A   Overcast
6:54 PM 21.2 °F 11.7 °F 21.2 °F 100% 29.79 in 10.0 mi NNW 8.1 mph - N/A   Overcast
7:13 PM 21.2 °F 10.9 °F 21.2 °F 100% 29.79 in 10.0 mi North 9.2 mph - N/A   Overcast
7:33 PM 21.2 °F 11.7 °F 21.2 °F 100% 29.79 in 10.0 mi North 8.1 mph - N/A   Overcast
7:52 PM 21.2 °F 12.6 °F 21.2 °F 100% 29.79 in 10.0 mi NNW 6.9 mph - N/A   Overcast
8:13 PM 21.2 °F 14.9 °F 21.2 °F 100% 29.80 in 10.0 mi North 4.6 mph - N/A   Overcast
8:33 PM 21.2 °F 12.6 °F 21.2 °F 100% 29.79 in 10.0 mi NNW 6.9 mph - N/A   Overcast
8:53 PM 21.2 °F 13.6 °F 21.2 °F 100% 29.80 in 10.0 mi NNW 5.8 mph - N/A   Overcast
9:13 PM 21.2 °F 10.9 °F 19.4 °F 93% 29.80 in 10.0 mi NNW 9.2 mph - N/A   Overcast
9:33 PM 21.2 °F 12.6 °F 19.4 °F 93% 29.81 in 10.0 mi NNW 6.9 mph - N/A   Overcast
9:53 PM 21.2 °F 13.6 °F 21.2 °F 100% 29.80 in 10.0 mi NNW 5.8 mph - N/A   Overcast
10:13 PM 21.2 °F 11.7 °F 21.2 °F 100% 29.80 in 10.0 mi NNW 8.1 mph - N/A   Overcast
10:33 PM 21.2 °F 13.6 °F 21.2 °F 100% 29.80 in 10.0 mi North 5.8 mph - N/A   Overcast
10:53 PM 19.4 °F 10.4 °F 19.4 °F 100% 29.80 in 10.0 mi NNW 6.9 mph - N/A   Overcast
11:13 PM 21.2 °F 12.6 °F 21.2 °F 100% 29.80 in 10.0 mi North 6.9 mph - N/A   Overcast
11:33 PM 19.4 °F 10.4 °F 19.4 °F 100% 29.80 in 10.0 mi NNW 6.9 mph - N/A   Overcast
11:53 PM 19.4 °F 14.3 °F 19.4 °F 100% 29.80 in 10.0 mi North 3.5 mph - N/A   Overcast